createdAt,value
2022-08-16T00:00:29.013Z,99.99
2022-08-16T00:01:34.210Z,99.99
2022-08-16T00:02:29.041Z,99.99
2022-08-16T00:03:27.956Z,99.99
2022-08-16T00:04:27.945Z,99.99
2022-08-16T00:05:35.288Z,99.99
2022-08-16T00:06:28.936Z,99.99
2022-08-16T00:07:29.404Z,99.99
2022-08-16T00:08:36.698Z,99.99
2022-08-16T00:09:28.973Z,99.99
2022-08-16T00:10:27.876Z,99.99
2022-08-16T00:11:27.849Z,99.99
2022-08-16T00:12:27.889Z,99.99
2022-08-16T00:13:27.839Z,99.99
2022-08-16T00:14:29.200Z,99.99
2022-08-16T00:15:51.511Z,99.99
2022-08-16T00:17:06.215Z,99.99
2022-08-16T00:17:28.800Z,99.99
2022-08-16T00:18:29.798Z,99.99
2022-08-16T00:19:28.374Z,99.99
2022-08-16T00:20:28.752Z,99.99
2022-08-16T00:21:28.929Z,99.99
2022-08-16T00:22:28.055Z,99.99
2022-08-16T00:23:34.613Z,99.99
2022-08-16T00:24:32.225Z,99.99
2022-08-16T00:26:33.390Z,99.99
2022-08-16T00:26:36.696Z,99.99
2022-08-16T00:27:30.886Z,99.99
2022-08-16T00:28:28.675Z,99.82
2022-08-16T00:29:29.926Z,99.82
2022-08-16T00:30:28.920Z,99.92
2022-08-16T00:31:27.599Z,99.99
2022-08-16T00:32:33.003Z,99.99
2022-08-16T00:33:28.583Z,99.92
2022-08-16T00:34:41.367Z,99.99
2022-08-16T00:35:28.543Z,99.99
2022-08-16T00:36:27.529Z,99.99
2022-08-16T00:37:58.409Z,99.99
2022-08-16T00:38:40.882Z,99.99
2022-08-16T00:39:28.511Z,99.99
2022-08-16T00:40:34.569Z,99.99
2022-08-16T00:41:28.486Z,99.99
2022-08-16T00:42:30.025Z,99.99
2022-08-16T00:43:40.785Z,99.99
2022-08-16T00:44:32.696Z,99.99
2022-08-16T00:45:27.466Z,99.99
2022-08-16T00:46:33.913Z,99.99
2022-08-16T00:47:29.964Z,99.97
2022-08-16T00:48:30.298Z,99.99
2022-08-16T00:49:27.351Z,99.99
2022-08-16T00:50:35.859Z,99.99
2022-08-16T00:51:29.497Z,99.99
2022-08-16T00:52:30.458Z,99.99
2022-08-16T00:53:27.333Z,99.99
2022-08-16T00:54:27.289Z,99.99
2022-08-16T00:55:27.278Z,99.99
2022-08-16T00:56:56.148Z,99.99
2022-08-16T00:57:33.055Z,99.99
2022-08-16T00:58:32.270Z,99.99
2022-08-16T00:59:28.229Z,99.99
2022-08-16T01:00:27.359Z,99.99
2022-08-16T01:01:27.224Z,99.99
2022-08-16T01:02:31.439Z,99.99
2022-08-16T01:03:30.243Z,99.99
2022-08-16T01:04:30.577Z,99.99
2022-08-16T01:05:27.150Z,99.99
2022-08-16T01:06:40.518Z,99.99
2022-08-16T01:07:28.126Z,99.99
2022-08-16T01:08:36.157Z,99.99
2022-08-16T01:09:33.408Z,99.99
2022-08-16T01:10:31.386Z,99.99
2022-08-16T01:11:27.067Z,99.99
2022-08-16T01:12:27.058Z,99.99
2022-08-16T01:13:27.046Z,99.99
2022-08-16T01:14:30.061Z,99.99
2022-08-16T01:15:27.017Z,99.99
2022-08-16T01:16:27.007Z,99.99
2022-08-16T01:17:26.986Z,99.99
2022-08-16T01:18:40.537Z,99.99
2022-08-16T01:19:29.264Z,99.99
2022-08-16T01:20:30.156Z,99.99
2022-08-16T01:21:33.394Z,99.99
2022-08-16T01:22:48.140Z,99.99
2022-08-16T01:23:27.935Z,99.99
2022-08-16T01:24:53.210Z,99.99
2022-08-16T01:25:34.195Z,99.99
2022-08-16T01:26:34.988Z,99.99
2022-08-16T01:27:27.863Z,99.99
2022-08-16T01:28:30.984Z,99.99
2022-08-16T01:29:55.983Z,99.99
2022-08-16T01:30:27.829Z,99.99
2022-08-16T01:31:30.994Z,99.99
2022-08-16T01:32:33.657Z,99.99
2022-08-16T01:33:33.398Z,99.99
2022-08-16T01:34:27.765Z,99.99
2022-08-16T01:35:26.757Z,99.99
2022-08-16T01:36:26.826Z,99.99
2022-08-16T01:37:26.725Z,99.99
2022-08-16T01:38:28.533Z,99.99
2022-08-16T01:39:26.733Z,99.99
2022-08-16T01:40:26.694Z,99.99
2022-08-16T01:41:26.673Z,99.99
2022-08-16T01:42:26.655Z,99.99
2022-08-16T01:43:26.655Z,99.99
2022-08-16T01:44:26.643Z,99.99
2022-08-16T01:45:40.304Z,99.99
2022-08-16T01:46:38.405Z,99.99
2022-08-16T01:47:27.590Z,99.99
2022-08-16T01:48:26.593Z,99.99
2022-08-16T01:49:26.582Z,99.99
2022-08-16T01:50:41.799Z,99.99
2022-08-16T01:51:27.545Z,99.99
2022-08-16T01:52:29.830Z,99.99
2022-08-16T01:53:26.536Z,99.99
2022-08-16T01:54:31.248Z,99.99
2022-08-16T01:55:26.496Z,99.99
2022-08-16T01:56:27.512Z,99.99
2022-08-16T01:57:26.498Z,99.99
2022-08-16T01:58:26.448Z,99.99
2022-08-16T01:59:26.442Z,99.99
2022-08-16T02:00:29.400Z,99.99
2022-08-16T02:01:28.124Z,99.99
2022-08-16T02:02:27.368Z,99.99
2022-08-16T02:03:26.635Z,99.99
2022-08-16T02:04:48.247Z,99.99
2022-08-16T02:05:30.288Z,99.99
2022-08-16T02:06:34.284Z,99.99
2022-08-16T02:07:27.361Z,99.99
2022-08-16T02:08:32.685Z,99.99
2022-08-16T02:09:27.318Z,99.99
2022-08-16T02:10:27.307Z,99.99
2022-08-16T02:11:26.328Z,99.99
2022-08-16T02:12:51.726Z,99.99
2022-08-16T02:13:27.766Z,99.99
2022-08-16T02:14:27.315Z,99.99
2022-08-16T02:15:26.511Z,99.99
2022-08-16T02:16:26.221Z,99.99
2022-08-16T02:17:26.224Z,99.99
2022-08-16T02:18:26.190Z,99.99
2022-08-16T02:19:59.139Z,99.99
2022-08-16T02:20:27.902Z,99.99
2022-08-16T02:21:31.600Z,99.99
2022-08-16T02:22:33.841Z,99.99
2022-08-16T02:23:27.159Z,99.99
2022-08-16T02:24:32.533Z,99.99
2022-08-16T02:25:52.251Z,99.99
2022-08-16T02:26:27.079Z,99.99
2022-08-16T02:27:26.079Z,99.99
2022-08-16T02:28:26.051Z,99.99
2022-08-16T02:29:31.848Z,99.99
2022-08-16T02:30:37.171Z,99.99
2022-08-16T02:32:03.966Z,99.99
2022-08-16T02:32:49.829Z,99.99
2022-08-16T02:33:44.553Z,99.99
2022-08-16T02:34:32.773Z,99.99
2022-08-16T02:35:26.990Z,99.99
2022-08-16T02:36:47.795Z,99.99
2022-08-16T02:37:51.563Z,99.99
2022-08-16T02:38:26.944Z,99.99
2022-08-16T02:39:25.959Z,99.99
2022-08-16T02:40:25.906Z,99.99
2022-08-16T02:41:25.889Z,99.99
2022-08-16T02:42:25.872Z,99.99
2022-08-16T02:43:26.886Z,99.99
2022-08-16T02:44:26.892Z,99.99
2022-08-16T02:45:28.026Z,99.99
2022-08-16T02:46:30.124Z,99.99
2022-08-16T02:47:26.808Z,99.99
2022-08-16T02:48:30.499Z,99.99
2022-08-16T02:49:57.983Z,99.99
2022-08-16T02:50:55.124Z,99.99
2022-08-16T02:51:26.750Z,99.99
2022-08-16T02:52:29.623Z,99.99
2022-08-16T02:53:26.744Z,99.99
2022-08-16T02:54:25.721Z,99.99
2022-08-16T02:55:40.943Z,99.99
2022-08-16T02:56:32.398Z,99.99
2022-08-16T02:57:26.707Z,99.99
2022-08-16T02:58:25.706Z,99.99
2022-08-16T02:59:25.658Z,99.99
2022-08-16T03:00:34.149Z,99.99
2022-08-16T03:01:36.705Z,99.99
2022-08-16T03:02:31.954Z,99.99
2022-08-16T03:03:26.600Z,99.99
2022-08-16T03:04:39.667Z,99.99
2022-08-16T03:05:26.569Z,99.99
2022-08-16T03:06:42.350Z,99.99
2022-08-16T03:07:27.358Z,99.99
2022-08-16T03:08:50.873Z,99.99
2022-08-16T03:09:29.866Z,99.99
2022-08-16T03:10:33.423Z,99.99
2022-08-16T03:11:26.524Z,99.99
2022-08-16T03:12:30.422Z,99.99
2022-08-16T03:13:26.480Z,99.99
2022-08-16T03:14:25.456Z,99.99
2022-08-16T03:15:25.455Z,99.99
2022-08-16T03:16:37.763Z,99.99
2022-08-16T03:17:32.166Z,99.99
2022-08-16T03:18:34.784Z,99.99
2022-08-16T03:19:26.522Z,99.99
2022-08-16T03:20:32.252Z,99.99
2022-08-16T03:21:26.376Z,99.99
2022-08-16T03:22:28.701Z,99.99
2022-08-16T03:23:25.325Z,99.99
2022-08-16T03:24:28.569Z,99.99
2022-08-16T03:25:25.336Z,99.99
2022-08-16T03:26:26.304Z,99.99
2022-08-16T03:27:25.306Z,99.99
2022-08-16T03:28:26.263Z,99.99
2022-08-16T03:29:25.265Z,99.99
2022-08-16T03:30:25.249Z,99.99
2022-08-16T03:31:25.234Z,99.99
2022-08-16T03:32:26.285Z,99.99
2022-08-16T03:33:25.334Z,99.99
2022-08-16T03:34:25.199Z,99.99
2022-08-16T03:35:32.988Z,99.99
2022-08-16T03:36:32.634Z,99.99
2022-08-16T03:37:26.155Z,99.99
2022-08-16T03:38:32.399Z,99.99
2022-08-16T03:39:26.161Z,99.99
2022-08-16T03:40:32.952Z,99.99
2022-08-16T03:41:29.279Z,99.99
2022-08-16T03:42:25.101Z,99.99
2022-08-16T03:43:51.411Z,99.99
2022-08-16T03:44:44.380Z,99.99
2022-08-16T03:45:27.356Z,99.99
2022-08-16T03:46:47.312Z,99.99
2022-08-16T03:47:26.053Z,99.99
2022-08-16T03:48:36.651Z,99.99
2022-08-16T03:49:36.440Z,99.99
2022-08-16T03:50:26.912Z,99.99
2022-08-16T03:51:25.460Z,99.99
2022-08-16T03:52:31.647Z,99.99
2022-08-16T03:53:25.944Z,99.99
2022-08-16T03:54:25.938Z,99.99
2022-08-16T03:55:24.970Z,99.99
2022-08-16T03:56:25.898Z,99.99
2022-08-16T03:57:24.911Z,99.99
2022-08-16T03:58:25.874Z,99.99
2022-08-16T03:59:24.893Z,99.99
2022-08-16T04:00:35.755Z,99.99
2022-08-16T04:01:29.403Z,99.99
2022-08-16T04:02:31.631Z,99.99
2022-08-16T04:03:25.802Z,99.99
2022-08-16T04:04:25.071Z,99.99
2022-08-16T04:05:25.802Z,99.99
2022-08-16T04:06:24.769Z,99.99
2022-08-16T04:07:24.908Z,99.99
2022-08-16T04:08:24.763Z,99.99
2022-08-16T04:09:24.792Z,99.99
2022-08-16T04:10:36.051Z,99.99
2022-08-16T04:11:25.722Z,99.99
2022-08-16T04:12:53.349Z,99.99
2022-08-16T04:13:59.994Z,99.99
2022-08-16T04:14:32.978Z,99.99
2022-08-16T04:15:25.655Z,99.99
2022-08-16T04:16:27.401Z,99.99
2022-08-16T04:17:24.632Z,99.99
2022-08-16T04:18:24.632Z,99.99
2022-08-16T04:19:24.602Z,99.99
2022-08-16T04:20:33.840Z,99.99
2022-08-16T04:21:29.396Z,99.99
2022-08-16T04:22:27.736Z,99.99
2022-08-16T04:23:24.590Z,99.99
2022-08-16T04:24:28.698Z,99.99
2022-08-16T04:25:24.524Z,99.99
2022-08-16T04:26:24.550Z,99.99
2022-08-16T04:27:29.016Z,99.99
2022-08-16T04:28:29.218Z,99.91
2022-08-16T04:29:25.503Z,99.99
2022-08-16T04:30:32.326Z,99.99
2022-08-16T04:31:25.459Z,99.91
2022-08-16T04:32:25.440Z,99.99
2022-08-16T04:33:26.975Z,99.91
2022-08-16T04:34:24.935Z,99.77
2022-08-16T04:35:24.781Z,99.67
2022-08-16T04:36:24.393Z,99.57
2022-08-16T04:37:24.359Z,99.57
2022-08-16T04:38:24.368Z,99.67
2022-08-16T04:39:24.436Z,99.57
2022-08-16T04:40:25.521Z,99.57
2022-08-16T04:41:32.760Z,99.57
2022-08-16T04:42:26.220Z,99.67
2022-08-16T04:43:24.367Z,99.57
2022-08-16T04:44:32.726Z,99.67
2022-08-16T04:45:35.782Z,99.77
2022-08-16T04:47:00.524Z,99.87
2022-08-16T04:47:25.273Z,99.67
2022-08-16T04:48:28.429Z,99.47
2022-08-16T04:49:25.209Z,99.37
2022-08-16T04:50:29.786Z,99.27
2022-08-16T04:51:25.180Z,99.37
2022-08-16T04:52:33.694Z,99.37
2022-08-16T04:53:25.219Z,99.16
2022-08-16T04:54:24.144Z,99.27
2022-08-16T04:55:31.632Z,99.16
2022-08-16T04:56:25.108Z,99.07
2022-08-16T04:57:24.118Z,99.07
2022-08-16T04:58:44.919Z,99.16
2022-08-16T04:59:29.205Z,99.16
2022-08-16T05:00:32.098Z,99.16
2022-08-16T05:01:47.812Z,99.07
2022-08-16T05:02:55.948Z,99.16
2022-08-16T05:03:26.028Z,99.16
2022-08-16T05:04:24.030Z,99.27
2022-08-16T05:05:25.007Z,99.37
2022-08-16T05:06:44.780Z,99.47
2022-08-16T05:07:25.075Z,99.67
2022-08-16T05:08:29.147Z,99.47
2022-08-16T05:09:24.948Z,99.37
2022-08-16T05:10:23.929Z,99.47
2022-08-16T05:11:23.930Z,99.37
2022-08-16T05:12:30.427Z,98.97
2022-08-16T05:13:24.917Z,98.66
2022-08-16T05:14:45.911Z,98.62
2022-08-16T05:15:24.870Z,98.22
2022-08-16T05:16:24.114Z,98.11
2022-08-16T05:17:24.857Z,98.11
2022-08-16T05:18:27.449Z,98.22
2022-08-16T05:19:23.837Z,98.17
2022-08-16T05:20:38.750Z,97.57
2022-08-16T05:21:24.788Z,97.17
2022-08-16T05:22:23.778Z,96.92
2022-08-16T05:23:23.778Z,96.62
2022-08-16T05:24:24.852Z,96.22
2022-08-16T05:25:23.742Z,96.02
2022-08-16T05:26:24.714Z,95.82
2022-08-16T05:27:23.707Z,96.12
2022-08-16T05:28:23.698Z,95.92
2022-08-16T05:29:24.988Z,95.72
2022-08-16T05:30:35.620Z,95.92
2022-08-16T05:31:29.851Z,95.52
2022-08-16T05:32:32.676Z,95.32
2022-08-16T05:33:24.656Z,94.87
2022-08-16T05:34:23.623Z,94.77
2022-08-16T05:35:24.435Z,95.21
2022-08-16T05:36:23.599Z,95.52
2022-08-16T05:37:24.657Z,95.72
2022-08-16T05:38:33.039Z,95.62
2022-08-16T05:39:24.615Z,95.72
2022-08-16T05:40:23.577Z,95.72
2022-08-16T05:41:23.536Z,95.21
2022-08-16T05:42:23.556Z,94.77
2022-08-16T05:43:24.535Z,94.57
2022-08-16T05:44:25.074Z,94.57
2022-08-16T05:45:23.814Z,94.87
2022-08-16T05:46:29.760Z,94.87
2022-08-16T05:47:24.457Z,94.82
2022-08-16T05:48:26.714Z,94.82
2022-08-16T05:49:23.502Z,94.92
2022-08-16T05:50:28.261Z,95.12
2022-08-16T05:51:35.242Z,95.42
2022-08-16T05:52:24.399Z,95.52
2022-08-16T05:53:24.389Z,95.92
2022-08-16T05:54:25.678Z,95.17
2022-08-16T05:55:23.355Z,94.57
2022-08-16T05:56:23.336Z,94.47
2022-08-16T05:57:23.319Z,94.17
2022-08-16T05:58:33.253Z,93.97
2022-08-16T05:59:24.297Z,93.97
2022-08-16T06:00:23.287Z,94.17
2022-08-16T06:01:23.338Z,93.97
2022-08-16T06:02:23.264Z,93.77
2022-08-16T06:03:24.975Z,93.67
2022-08-16T06:04:34.856Z,93.87
2022-08-16T06:06:27.942Z,94.02
2022-08-16T06:07:26.616Z,93.73
2022-08-16T06:08:32.441Z,93.93
2022-08-16T06:09:25.362Z,94.02
2022-08-16T06:10:32.071Z,93.43
2022-08-16T06:11:25.550Z,93.12
2022-08-16T06:12:26.835Z,92.82
2022-08-16T06:13:25.353Z,92.42
2022-08-16T06:14:25.358Z,91.88
2022-08-16T06:15:24.237Z,91.38
2022-08-16T06:16:27.012Z,91.48
2022-08-16T06:17:24.217Z,91.58
2022-08-16T06:18:27.273Z,91.78
2022-08-16T06:19:24.907Z,91.98
2022-08-16T06:20:35.627Z,92.08
2022-08-16T06:21:25.192Z,91.98
2022-08-16T06:22:39.239Z,91.98
2022-08-16T06:23:25.912Z,92.18
2022-08-16T06:24:55.042Z,92.08
2022-08-16T06:25:36.158Z,92.08
2022-08-16T06:26:25.080Z,92.08
2022-08-16T06:27:25.130Z,92.38
2022-08-16T06:28:36.612Z,92.78
2022-08-16T06:29:25.114Z,92.08
2022-08-16T06:30:24.107Z,92.08
2022-08-16T06:31:24.010Z,92.18
2022-08-16T06:32:27.279Z,92.08
2022-08-16T06:33:24.036Z,91.98
2022-08-16T06:34:53.284Z,91.78
2022-08-16T06:35:24.984Z,91.88
2022-08-16T06:36:26.748Z,91.74
2022-08-16T06:37:23.957Z,91.53
2022-08-16T06:38:32.898Z,91.53
2022-08-16T06:39:25.655Z,91.44
2022-08-16T06:40:23.977Z,91.24
2022-08-16T06:41:27.541Z,90.53
2022-08-16T06:42:23.914Z,89.73
2022-08-16T06:43:27.367Z,89.73
2022-08-16T06:44:24.369Z,90.13
2022-08-16T06:45:24.101Z,90.44
2022-08-16T06:46:31.986Z,90.23
2022-08-16T06:47:24.835Z,90.19
2022-08-16T06:48:33.185Z,90.09
2022-08-16T06:49:24.765Z,89.49
2022-08-16T06:50:31.182Z,89.59
2022-08-16T06:51:24.767Z,89.19
2022-08-16T06:52:57.585Z,89.39
2022-08-16T06:53:24.754Z,89.19
2022-08-16T06:54:23.781Z,88.89
2022-08-16T06:55:23.757Z,88.79
2022-08-16T06:56:23.889Z,87.89
2022-08-16T06:57:23.689Z,88.05
2022-08-16T06:58:31.395Z,88.05
2022-08-16T06:59:25.617Z,88.05
2022-08-16T07:00:24.721Z,88.35
2022-08-16T07:01:44.357Z,88.25
2022-08-16T07:02:32.743Z,87.91
2022-08-16T07:03:28.468Z,87.01
2022-08-16T07:04:31.739Z,87.11
2022-08-16T07:05:27.280Z,86.71
2022-08-16T07:06:26.569Z,86.61
2022-08-16T07:07:24.218Z,86.61
2022-08-16T07:08:24.579Z,86.61
2022-08-16T07:09:23.560Z,86.41
2022-08-16T07:10:26.644Z,86.17
2022-08-16T07:11:46.042Z,85.01
2022-08-16T07:12:42.371Z,85.51
2022-08-16T07:13:57.977Z,85.27
2022-08-16T07:14:27.121Z,85.11
2022-08-16T07:15:25.269Z,85.87
2022-08-16T07:16:27.872Z,85.97
2022-08-16T07:17:23.472Z,85.87
2022-08-16T07:18:24.363Z,85.57
2022-08-16T07:20:01.512Z,85.47
2022-08-16T07:20:34.889Z,85.33
2022-08-16T07:21:24.425Z,85.13
2022-08-16T07:22:38.650Z,85.13
2022-08-16T07:23:37.059Z,85.03
2022-08-16T07:24:30.551Z,84.83
2022-08-16T07:25:24.336Z,84.89
2022-08-16T07:26:25.180Z,84.39
2022-08-16T07:27:23.315Z,84.39
2022-08-16T07:28:24.368Z,85.19
2022-08-16T07:29:23.316Z,84.49
2022-08-16T07:30:38.960Z,84.39
2022-08-16T07:31:24.314Z,83.99
2022-08-16T07:32:29.694Z,84.19
2022-08-16T07:33:53.231Z,84.45
2022-08-16T07:34:34.823Z,83.95
2022-08-16T07:35:24.220Z,83.15
2022-08-16T07:36:23.214Z,83.69
2022-08-16T07:37:23.747Z,84.09
2022-08-16T07:38:31.866Z,83.79
2022-08-16T07:39:24.264Z,83.55
2022-08-16T07:40:42.608Z,83.65
2022-08-16T07:41:24.117Z,83.55
2022-08-16T07:42:28.546Z,83.35
2022-08-16T07:43:24.339Z,83.45
2022-08-16T07:44:24.109Z,83.25
2022-08-16T07:45:23.078Z,83.11
2022-08-16T07:46:38.878Z,83.31
2022-08-16T07:47:24.756Z,82.81
2022-08-16T07:48:24.174Z,82.62
2022-08-16T07:49:23.707Z,82.51
2022-08-16T07:50:57.103Z,82.62
2022-08-16T07:51:23.976Z,82.81
2022-08-16T07:52:22.994Z,82.32
2022-08-16T07:53:23.933Z,82.57
2022-08-16T07:54:32.392Z,82.57
2022-08-16T07:55:23.976Z,82.37
2022-08-16T07:56:22.913Z,82.37
2022-08-16T07:57:24.123Z,82.37
2022-08-16T07:58:33.899Z,82.28
2022-08-16T07:59:23.911Z,82.67
2022-08-16T08:00:25.732Z,82.67
2022-08-16T08:01:22.920Z,82.37
2022-08-16T08:02:22.967Z,82.37
2022-08-16T08:03:22.840Z,82.37
2022-08-16T08:04:23.837Z,81.58
2022-08-16T08:05:28.198Z,81.48
2022-08-16T08:06:25.019Z,81.18
2022-08-16T08:07:23.010Z,81.88
2022-08-16T08:08:50.168Z,81.28
2022-08-16T08:09:24.380Z,81.18
2022-08-16T08:10:29.145Z,80.29
2022-08-16T08:11:24.062Z,80.38
2022-08-16T08:12:32.510Z,80.84
2022-08-16T08:13:41.790Z,81.34
2022-08-16T08:14:29.931Z,81.14
2022-08-16T08:15:25.511Z,80.54
2022-08-16T08:16:30.460Z,80.74
2022-08-16T08:17:23.669Z,80.54
2022-08-16T08:18:30.167Z,80.84
2022-08-16T08:19:23.673Z,80.35
2022-08-16T08:20:28.046Z,80.41
2022-08-16T08:21:27.408Z,80.30
2022-08-16T08:22:22.593Z,80.00
2022-08-16T08:23:22.609Z,80.90
2022-08-16T08:24:22.609Z,80.11
2022-08-16T08:25:23.559Z,79.91
2022-08-16T08:26:22.554Z,79.11
2022-08-16T08:27:23.564Z,79.41
2022-08-16T08:28:22.516Z,79.31
2022-08-16T08:29:24.768Z,79.71
2022-08-16T08:30:51.297Z,79.67
2022-08-16T08:31:24.492Z,79.67
2022-08-16T08:32:57.998Z,79.47
2022-08-16T08:33:23.501Z,79.57
2022-08-16T08:34:23.112Z,79.27
2022-08-16T08:35:24.346Z,78.18
2022-08-16T08:36:22.492Z,78.88
2022-08-16T08:37:22.439Z,79.63
2022-08-16T08:38:45.020Z,78.14
2022-08-16T08:39:23.457Z,78.24
2022-08-16T08:40:24.801Z,77.64
2022-08-16T08:41:27.690Z,77.05
2022-08-16T08:42:26.550Z,77.64
2022-08-16T08:43:22.350Z,77.84
2022-08-16T08:44:27.808Z,77.21
2022-08-16T08:45:47.105Z,76.91
2022-08-16T08:46:23.289Z,76.32
2022-08-16T08:47:22.538Z,76.32
2022-08-16T08:48:33.246Z,76.81
2022-08-16T08:49:23.292Z,77.11
2022-08-16T08:50:32.253Z,76.81
2022-08-16T08:51:23.329Z,76.72
2022-08-16T08:52:22.227Z,76.61
2022-08-16T08:53:29.527Z,76.91
2022-08-16T08:54:23.196Z,76.78
2022-08-16T08:55:22.250Z,76.48
2022-08-16T08:56:23.753Z,76.68
2022-08-16T08:57:22.847Z,74.99
2022-08-16T08:58:22.137Z,73.69
2022-08-16T08:59:22.345Z,74.19
2022-08-16T09:00:22.198Z,74.39
2022-08-16T09:01:31.436Z,73.10
2022-08-16T09:02:23.091Z,73.20
2022-08-16T09:03:22.085Z,73.46
2022-08-16T09:04:23.108Z,73.46
2022-08-16T09:05:22.324Z,73.27
2022-08-16T09:06:22.508Z,72.77
2022-08-16T09:07:22.091Z,72.97
2022-08-16T09:08:22.186Z,72.97
2022-08-16T09:09:22.032Z,73.96
2022-08-16T09:10:22.045Z,73.16
2022-08-16T09:11:21.966Z,72.97
2022-08-16T09:12:35.507Z,72.97
2022-08-16T09:13:22.960Z,72.17
2022-08-16T09:14:23.918Z,71.97
2022-08-16T09:15:21.945Z,72.27
2022-08-16T09:17:01.714Z,71.78
2022-08-16T09:17:51.761Z,72.07
2022-08-16T09:18:25.347Z,71.94
2022-08-16T09:19:32.966Z,72.33
2022-08-16T09:20:23.435Z,71.94
2022-08-16T09:21:21.857Z,71.94
2022-08-16T09:22:22.839Z,71.51
2022-08-16T09:23:21.827Z,71.81
2022-08-16T09:24:52.909Z,71.41
2022-08-16T09:25:26.102Z,71.70
2022-08-16T09:26:44.907Z,71.21
2022-08-16T09:27:25.282Z,69.92
2022-08-16T09:29:14.021Z,69.72
2022-08-16T09:29:24.280Z,69.43
2022-08-16T09:30:33.323Z,69.23
2022-08-16T09:31:22.808Z,69.03
2022-08-16T09:32:28.428Z,69.43
2022-08-16T09:33:22.737Z,69.29
2022-08-16T09:34:21.691Z,68.80
2022-08-16T09:35:21.688Z,69.29
2022-08-16T09:36:32.875Z,68.60
2022-08-16T09:37:29.881Z,68.80
2022-08-16T09:38:32.412Z,67.41
2022-08-16T09:39:22.672Z,68.10
2022-08-16T09:40:33.164Z,68.50
2022-08-16T09:41:22.620Z,67.90
2022-08-16T09:42:21.576Z,67.61
2022-08-16T09:44:00.101Z,68.01
2022-08-16T09:45:12.351Z,67.90
2022-08-16T09:45:22.670Z,68.57
2022-08-16T09:46:45.247Z,68.07
2022-08-16T09:47:23.502Z,67.18
2022-08-16T09:48:21.512Z,67.57
2022-08-16T09:49:22.579Z,67.77
2022-08-16T09:50:22.658Z,67.44
2022-08-16T09:51:23.423Z,67.24
2022-08-16T09:52:22.425Z,67.24
2022-08-16T09:53:21.677Z,67.54
2022-08-16T09:54:21.447Z,66.25
2022-08-16T09:55:21.457Z,65.26
2022-08-16T09:56:21.793Z,65.76
2022-08-16T09:57:21.388Z,65.56
2022-08-16T09:58:41.218Z,65.76
2022-08-16T09:59:22.638Z,66.35
2022-08-16T10:00:44.991Z,65.66
2022-08-16T10:01:22.376Z,64.97
2022-08-16T10:02:27.305Z,64.47
2022-08-16T10:03:22.374Z,64.17
2022-08-16T10:04:30.900Z,64.47
2022-08-16T10:05:22.297Z,62.19
2022-08-16T10:06:21.269Z,62.88
2022-08-16T10:07:21.270Z,63.55
2022-08-16T10:08:26.526Z,64.54
2022-08-16T10:09:22.274Z,63.95
2022-08-16T10:10:31.014Z,64.04
2022-08-16T10:11:23.979Z,64.31
2022-08-16T10:12:21.222Z,63.42
2022-08-16T10:13:21.300Z,63.22
2022-08-16T10:14:24.836Z,63.09
2022-08-16T10:15:22.277Z,62.90
2022-08-16T10:16:22.146Z,62.01
2022-08-16T10:17:21.168Z,62.23
2022-08-16T10:18:54.047Z,62.73
2022-08-16T10:19:22.126Z,61.83
2022-08-16T10:20:21.112Z,61.83
2022-08-16T10:21:22.725Z,62.53
2022-08-16T10:22:23.188Z,62.70
2022-08-16T10:23:21.111Z,59.53
2022-08-16T10:24:28.553Z,60.16
2022-08-16T10:27:00.759Z,60.72
2022-08-16T10:27:17.439Z,60.55
2022-08-16T10:27:26.687Z,60.52
2022-08-16T10:28:32.006Z,60.79
2022-08-16T10:29:22.007Z,61.41
2022-08-16T10:30:25.242Z,60.72
2022-08-16T10:31:45.632Z,60.92
2022-08-16T10:32:21.977Z,61.21
2022-08-16T10:33:21.024Z,60.82
2022-08-16T10:34:30.689Z,61.29
2022-08-16T10:35:21.933Z,60.49
2022-08-16T10:36:37.811Z,60.00
2022-08-16T10:37:32.681Z,60.76
2022-08-16T10:38:27.036Z,59.45
2022-08-16T10:39:21.846Z,59.84
2022-08-16T10:40:29.569Z,59.15
2022-08-16T10:41:25.200Z,58.75
2022-08-16T10:42:20.820Z,58.16
2022-08-16T10:43:20.943Z,58.16
2022-08-16T10:44:20.788Z,57.93
2022-08-16T10:45:21.464Z,57.15
2022-08-16T10:46:33.729Z,57.22
2022-08-16T10:47:22.391Z,56.82
2022-08-16T10:48:26.999Z,56.73
2022-08-16T10:49:21.724Z,57.88
2022-08-16T10:50:20.746Z,57.42
2022-08-16T10:51:20.730Z,58.11
2022-08-16T10:52:24.283Z,57.12
2022-08-16T10:53:21.729Z,57.81
2022-08-16T10:54:29.086Z,57.15
2022-08-16T10:56:52.070Z,57.87
2022-08-16T10:57:24.593Z,57.47
2022-08-16T10:58:20.621Z,57.89
2022-08-16T10:59:32.689Z,58.09
2022-08-16T11:00:22.728Z,56.58
2022-08-16T11:01:43.166Z,56.98
2022-08-16T11:02:58.163Z,57.37
2022-08-16T11:05:21.600Z,55.89
2022-08-16T11:06:21.563Z,55.69
2022-08-16T11:08:31.301Z,55.96
2022-08-16T11:09:24.383Z,55.96
2022-08-16T11:10:21.432Z,56.16
2022-08-16T11:11:21.461Z,55.66
2022-08-16T11:12:20.462Z,54.85
2022-08-16T11:13:57.567Z,54.75
2022-08-16T11:14:21.473Z,55.64
2022-08-16T11:15:20.482Z,56.04
2022-08-16T11:17:00.740Z,56.82
2022-08-16T11:17:21.398Z,56.23
2022-08-16T11:19:03.288Z,56.95
2022-08-16T11:19:22.615Z,56.85
2022-08-16T11:21:28.532Z,56.36
2022-08-16T11:22:38.471Z,56.36
2022-08-16T11:23:21.392Z,57.05
2022-08-16T11:24:39.595Z,57.45
2022-08-16T11:26:24.339Z,56.75
2022-08-16T11:27:23.711Z,55.77
2022-08-16T11:29:21.239Z,55.87
2022-08-16T11:30:20.337Z,55.37
2022-08-16T11:31:21.284Z,54.95
2022-08-16T11:32:29.853Z,54.95
2022-08-16T11:33:52.176Z,54.85
2022-08-16T11:34:21.347Z,54.23
2022-08-16T11:35:43.398Z,54.23
2022-08-16T11:36:27.856Z,54.23
2022-08-16T11:37:27.542Z,54.23
2022-08-16T11:38:23.999Z,54.60
2022-08-16T11:39:21.283Z,54.01
2022-08-16T11:40:20.106Z,52.73
2022-08-16T11:41:21.322Z,53.00
2022-08-16T11:42:28.690Z,53.30
2022-08-16T11:43:21.099Z,53.39
2022-08-16T11:44:52.735Z,53.56
2022-08-16T11:45:21.067Z,53.27
2022-08-16T11:46:44.521Z,53.27
2022-08-16T11:47:21.009Z,53.07
2022-08-16T11:48:19.993Z,52.36
2022-08-16T11:49:19.989Z,52.19
2022-08-16T11:50:20.008Z,51.40
2022-08-16T11:51:19.966Z,52.31
2022-08-16T11:52:21.706Z,51.81
2022-08-16T11:53:20.130Z,52.63
2022-08-16T11:54:21.522Z,53.61
2022-08-16T11:55:19.914Z,53.32
2022-08-16T11:56:39.496Z,53.54
2022-08-16T11:57:20.930Z,53.37
2022-08-16T11:58:20.087Z,54.55
2022-08-16T11:59:19.910Z,54.48
2022-08-16T12:00:49.835Z,55.37
2022-08-16T12:01:29.943Z,54.38
2022-08-16T12:02:31.839Z,54.26
2022-08-16T12:03:31.475Z,53.64
2022-08-16T12:04:21.354Z,52.85
2022-08-16T12:05:19.786Z,52.14
2022-08-16T12:06:30.946Z,52.33
2022-08-16T12:07:20.782Z,51.97
2022-08-16T12:08:19.737Z,53.54
2022-08-16T12:09:20.739Z,53.94
2022-08-16T12:10:19.730Z,53.94
2022-08-16T12:11:19.716Z,54.21
2022-08-16T12:12:19.752Z,54.30
2022-08-16T12:13:19.677Z,53.88
2022-08-16T12:14:19.717Z,53.39
2022-08-16T12:15:19.676Z,53.56
2022-08-16T12:16:20.492Z,53.56
2022-08-16T12:17:19.644Z,52.78
2022-08-16T12:18:20.832Z,52.78
2022-08-16T12:19:19.629Z,53.00
2022-08-16T12:20:19.602Z,52.11
2022-08-16T12:21:19.744Z,51.81
2022-08-16T12:22:20.252Z,51.74
2022-08-16T12:23:19.561Z,52.33
2022-08-16T12:24:19.559Z,52.04
2022-08-16T12:25:19.759Z,50.66
2022-08-16T12:26:19.539Z,50.85
2022-08-16T12:27:19.531Z,52.11
2022-08-16T12:28:37.072Z,51.03
2022-08-16T12:29:20.579Z,51.72
2022-08-16T12:30:21.206Z,51.52
2022-08-16T12:31:19.522Z,51.84
2022-08-16T12:32:27.138Z,51.54
2022-08-16T12:33:25.717Z,51.74
2022-08-16T12:34:27.894Z,52.23
2022-08-16T12:35:20.456Z,51.37
2022-08-16T12:36:19.477Z,52.06
2022-08-16T12:37:19.395Z,51.89
2022-08-16T12:38:41.732Z,52.58
2022-08-16T12:39:20.348Z,51.99
2022-08-16T12:40:23.993Z,52.68
2022-08-16T12:41:24.479Z,52.98
2022-08-16T12:42:20.560Z,53.37
2022-08-16T12:43:20.085Z,53.08
2022-08-16T12:44:19.744Z,52.78
2022-08-16T12:45:19.280Z,52.39
2022-08-16T12:46:19.276Z,52.39
2022-08-16T12:47:19.283Z,52.19
2022-08-16T12:48:33.941Z,51.89
2022-08-16T12:49:20.220Z,52.58
2022-08-16T12:50:20.489Z,51.97
2022-08-16T12:51:22.199Z,51.57
2022-08-16T12:52:32.981Z,51.97
2022-08-16T12:53:20.246Z,50.85
2022-08-16T12:54:19.619Z,50.16
2022-08-16T12:55:19.240Z,50.24
2022-08-16T12:56:19.171Z,49.65
2022-08-16T12:57:19.159Z,49.18
2022-08-16T12:58:49.251Z,49.38
2022-08-16T12:59:20.954Z,50.14
2022-08-16T13:00:26.520Z,50.44